sensor_id;sensor_type;location;lat;lon;timestamp;temperature;humidity
28438;DHT22;15667;52.376;9.708;2023-02-03T00:01:35;7.50;99.90
28438;DHT22;15667;52.376;9.708;2023-02-03T00:04:00;7.50;99.90
28438;DHT22;15667;52.376;9.708;2023-02-03T00:06:26;7.50;99.90
28438;DHT22;15667;52.376;9.708;2023-02-03T00:08:54;7.50;99.90
28438;DHT22;15667;52.376;9.708;2023-02-03T00:11:21;8.70;99.90
28438;DHT22;15667;52.376;9.708;2023-02-03T00:13:46;7.50;99.90
28438;DHT22;15667;52.376;9.708;2023-02-03T00:16:12;7.80;99.90
28438;DHT22;15667;52.376;9.708;2023-02-03T00:18:37;8.30;99.90
28438;DHT22;15667;52.376;9.708;2023-02-03T00:21:04;7.60;99.90
28438;DHT22;15667;52.376;9.708;2023-02-03T00:23:30;7.60;99.90
28438;DHT22;15667;52.376;9.708;2023-02-03T00:25:57;7.50;99.90
28438;DHT22;15667;52.376;9.708;2023-02-03T00:28:23;7.50;99.90
28438;DHT22;15667;52.376;9.708;2023-02-03T00:30:52;7.50;99.90
28438;DHT22;15667;52.376;9.708;2023-02-03T00:33:18;7.60;99.90
28438;DHT22;15667;52.376;9.708;2023-02-03T00:35:44;7.50;99.90
28438;DHT22;15667;52.376;9.708;2023-02-03T00:38:09;7.60;99.90
28438;DHT22;15667;52.376;9.708;2023-02-03T00:40:35;7.60;99.90
28438;DHT22;15667;52.376;9.708;2023-02-03T00:43:00;8.60;99.90
28438;DHT22;15667;52.376;9.708;2023-02-03T00:45:26;7.60;99.90
28438;DHT22;15667;52.376;9.708;2023-02-03T00:47:52;8.80;99.90
28438;DHT22;15667;52.376;9.708;2023-02-03T00:50:17;8.20;99.90
28438;DHT22;15667;52.376;9.708;2023-02-03T00:52:43;7.60;99.90
28438;DHT22;15667;52.376;9.708;2023-02-03T00:55:08;7.50;99.90
28438;DHT22;15667;52.376;9.708;2023-02-03T00:57:34;8.40;99.90
28438;DHT22;15667;52.376;9.708;2023-02-03T01:00:00;7.60;99.90
28438;DHT22;15667;52.376;9.708;2023-02-03T01:02:25;7.60;99.90
28438;DHT22;15667;52.376;9.708;2023-02-03T01:04:51;7.50;99.90
28438;DHT22;15667;52.376;9.708;2023-02-03T01:07:17;7.60;99.90
28438;DHT22;15667;52.376;9.708;2023-02-03T01:09:43;7.50;99.90
28438;DHT22;15667;52.376;9.708;2023-02-03T01:12:08;7.50;99.90
28438;DHT22;15667;52.376;9.708;2023-02-03T01:14:34;7.60;99.90
28438;DHT22;15667;52.376;9.708;2023-02-03T01:17:00;8.50;99.90
28438;DHT22;15667;52.376;9.708;2023-02-03T01:19:26;7.60;99.90
28438;DHT22;15667;52.376;9.708;2023-02-03T01:21:51;7.50;99.90
28438;DHT22;15667;52.376;9.708;2023-02-03T01:24:17;7.50;99.90
28438;DHT22;15667;52.376;9.708;2023-02-03T01:26:43;8.60;99.90
28438;DHT22;15667;52.376;9.708;2023-02-03T01:29:09;7.60;99.90
28438;DHT22;15667;52.376;9.708;2023-02-03T01:31:37;8.40;99.90
28438;DHT22;15667;52.376;9.708;2023-02-03T01:34:07;7.60;99.90
28438;DHT22;15667;52.376;9.708;2023-02-03T01:36:35;8.80;99.90
28438;DHT22;15667;52.376;9.708;2023-02-03T01:39:03;7.70;99.90
28438;DHT22;15667;52.376;9.708;2023-02-03T01:41:34;7.70;99.90
28438;DHT22;15667;52.376;9.708;2023-02-03T01:44:01;7.70;99.90
28438;DHT22;15667;52.376;9.708;2023-02-03T01:46:40;7.60;99.90
28438;DHT22;15667;52.376;9.708;2023-02-03T01:49:24;7.70;99.90
28438;DHT22;15667;52.376;9.708;2023-02-03T01:51:51;7.70;99.90
28438;DHT22;15667;52.376;9.708;2023-02-03T01:54:21;7.70;99.90
28438;DHT22;15667;52.376;9.708;2023-02-03T01:56:54;7.70;99.90
28438;DHT22;15667;52.376;9.708;2023-02-03T01:59:21;9.00;99.90
28438;DHT22;15667;52.376;9.708;2023-02-03T02:01:48;8.00;99.90
28438;DHT22;15667;52.376;9.708;2023-02-03T02:04:14;8.40;99.90
28438;DHT22;15667;52.376;9.708;2023-02-03T02:06:40;7.70;99.90
28438;DHT22;15667;52.376;9.708;2023-02-03T02:09:06;7.60;99.90
28438;DHT22;15667;52.376;9.708;2023-02-03T02:11:32;7.70;99.90
28438;DHT22;15667;52.376;9.708;2023-02-03T02:14:01;7.70;99.90
28438;DHT22;15667;52.376;9.708;2023-02-03T02:16:52;7.80;99.90
28438;DHT22;15667;52.376;9.708;2023-02-03T02:20:03;7.70;99.90
28438;DHT22;15667;52.376;9.708;2023-02-03T02:28:41;7.70;99.90
28438;DHT22;15667;52.376;9.708;2023-02-03T02:31:34;7.70;99.90
28438;DHT22;15667;52.376;9.708;2023-02-03T02:34:26;7.70;99.90
28438;DHT22;15667;52.376;9.708;2023-02-03T02:39:57;7.80;99.90
28438;DHT22;15667;52.376;9.708;2023-02-03T02:42:34;7.80;99.90
28438;DHT22;15667;52.376;9.708;2023-02-03T02:45:14;7.80;99.90
28438;DHT22;15667;52.376;9.708;2023-02-03T02:47:41;7.90;99.90
28438;DHT22;15667;52.376;9.708;2023-02-03T02:50:20;7.90;99.90
28438;DHT22;15667;52.376;9.708;2023-02-03T02:52:49;7.90;99.90
28438;DHT22;15667;52.376;9.708;2023-02-03T02:55:22;8.80;99.90
28438;DHT22;15667;52.376;9.708;2023-02-03T02:57:50;8.10;99.90
28438;DHT22;15667;52.376;9.708;2023-02-03T03:00:17;8.20;99.90
28438;DHT22;15667;52.376;9.708;2023-02-03T03:02:43;8.20;99.90
28438;DHT22;15667;52.376;9.708;2023-02-03T03:05:11;8.20;99.90
28438;DHT22;15667;52.376;9.708;2023-02-03T03:07:45;8.20;99.90
28438;DHT22;15667;52.376;9.708;2023-02-03T03:10:15;8.20;99.90
28438;DHT22;15667;52.376;9.708;2023-02-03T03:12:50;8.20;99.90
28438;DHT22;15667;52.376;9.708;2023-02-03T03:15:23;9.10;99.90
28438;DHT22;15667;52.376;9.708;2023-02-03T03:17:59;8.20;99.90
28438;DHT22;15667;52.376;9.708;2023-02-03T03:20:26;8.20;99.90
28438;DHT22;15667;52.376;9.708;2023-02-03T03:23:22;8.20;99.90
28438;DHT22;15667;52.376;9.708;2023-02-03T03:26:15;8.20;99.90
28438;DHT22;15667;52.376;9.708;2023-02-03T03:28:47;8.30;99.90
28438;DHT22;15667;52.376;9.708;2023-02-03T03:31:15;8.90;99.90
28438;DHT22;15667;52.376;9.708;2023-02-03T03:33:41;8.30;99.90
28438;DHT22;15667;52.376;9.708;2023-02-03T03:44:18;8.30;99.90
28438;DHT22;15667;52.376;9.708;2023-02-03T03:46:53;8.30;99.90
28438;DHT22;15667;52.376;9.708;2023-02-03T03:49:22;8.30;99.90
28438;DHT22;15667;52.376;9.708;2023-02-03T03:51:56;8.30;99.90
28438;DHT22;15667;52.376;9.708;2023-02-03T03:54:24;8.30;99.90
28438;DHT22;15667;52.376;9.708;2023-02-03T03:57:11;8.30;99.90
28438;DHT22;15667;52.376;9.708;2023-02-03T03:59:42;8.40;99.90
28438;DHT22;15667;52.376;9.708;2023-02-03T04:02:11;8.40;99.90
28438;DHT22;15667;52.376;9.708;2023-02-03T04:04:37;8.40;99.90
28438;DHT22;15667;52.376;9.708;2023-02-03T04:07:04;8.30;99.90
28438;DHT22;15667;52.376;9.708;2023-02-03T04:09:30;8.40;99.90
28438;DHT22;15667;52.376;9.708;2023-02-03T04:11:55;8.40;99.90
28438;DHT22;15667;52.376;9.708;2023-02-03T04:14:34;8.50;99.90
28438;DHT22;15667;52.376;9.708;2023-02-03T04:17:03;8.30;99.90
28438;DHT22;15667;52.376;9.708;2023-02-03T04:19:28;9.20;99.90
28438;DHT22;15667;52.376;9.708;2023-02-03T04:21:54;8.30;99.90
28438;DHT22;15667;52.376;9.708;2023-02-03T04:24:20;8.40;99.90
28438;DHT22;15667;52.376;9.708;2023-02-03T04:26:45;8.80;99.90
28438;DHT22;15667;52.376;9.708;2023-02-03T04:29:11;8.40;99.90
28438;DHT22;15667;52.376;9.708;2023-02-03T04:31:37;9.00;99.90
28438;DHT22;15667;52.376;9.708;2023-02-03T04:34:05;8.90;99.90
28438;DHT22;15667;52.376;9.708;2023-02-03T04:36:31;9.10;99.90
28438;DHT22;15667;52.376;9.708;2023-02-03T04:38:57;8.80;99.90
28438;DHT22;15667;52.376;9.708;2023-02-03T04:41:22;8.70;99.90
28438;DHT22;15667;52.376;9.708;2023-02-03T04:43:48;8.40;99.90
28438;DHT22;15667;52.376;9.708;2023-02-03T04:46:13;8.90;99.90
28438;DHT22;15667;52.376;9.708;2023-02-03T04:48:39;8.80;99.90
28438;DHT22;15667;52.376;9.708;2023-02-03T04:51:06;8.40;99.90
28438;DHT22;15667;52.376;9.708;2023-02-03T04:53:33;8.50;99.90
28438;DHT22;15667;52.376;9.708;2023-02-03T04:55:58;9.60;99.90
28438;DHT22;15667;52.376;9.708;2023-02-03T04:58:24;8.90;99.90
28438;DHT22;15667;52.376;9.708;2023-02-03T05:00:53;9.40;99.90
28438;DHT22;15667;52.376;9.708;2023-02-03T05:03:19;8.50;99.90
28438;DHT22;15667;52.376;9.708;2023-02-03T05:05:45;8.50;99.90
28438;DHT22;15667;52.376;9.708;2023-02-03T05:08:10;9.40;99.90
28438;DHT22;15667;52.376;9.708;2023-02-03T05:10:36;8.60;99.90
28438;DHT22;15667;52.376;9.708;2023-02-03T05:13:02;8.60;99.90
28438;DHT22;15667;52.376;9.708;2023-02-03T05:15:27;8.50;99.90
28438;DHT22;15667;52.376;9.708;2023-02-03T05:17:54;8.50;99.90
28438;DHT22;15667;52.376;9.708;2023-02-03T05:20:20;8.50;99.90
28438;DHT22;15667;52.376;9.708;2023-02-03T05:22:46;8.50;99.90
28438;DHT22;15667;52.376;9.708;2023-02-03T05:25:12;8.60;99.90
28438;DHT22;15667;52.376;9.708;2023-02-03T05:27:38;8.50;99.90
28438;DHT22;15667;52.376;9.708;2023-02-03T05:30:04;8.50;99.90
28438;DHT22;15667;52.376;9.708;2023-02-03T05:32:30;8.50;99.90
28438;DHT22;15667;52.376;9.708;2023-02-03T05:34:56;8.60;99.90
28438;DHT22;15667;52.376;9.708;2023-02-03T05:37:21;8.40;99.90
28438;DHT22;15667;52.376;9.708;2023-02-03T05:39:47;8.50;99.90
28438;DHT22;15667;52.376;9.708;2023-02-03T05:42:13;8.50;99.90
28438;DHT22;15667;52.376;9.708;2023-02-03T05:44:39;9.60;99.90
28438;DHT22;15667;52.376;9.708;2023-02-03T05:47:04;8.50;99.90
28438;DHT22;15667;52.376;9.708;2023-02-03T05:49:30;8.50;99.90
28438;DHT22;15667;52.376;9.708;2023-02-03T05:51:56;8.40;99.90
28438;DHT22;15667;52.376;9.708;2023-02-03T05:54:22;8.40;99.90
28438;DHT22;15667;52.376;9.708;2023-02-03T05:56:47;8.40;99.90
28438;DHT22;15667;52.376;9.708;2023-02-03T05:59:13;8.40;99.90
28438;DHT22;15667;52.376;9.708;2023-02-03T06:01:39;8.30;99.90
28438;DHT22;15667;52.376;9.708;2023-02-03T06:04:05;8.30;99.90
28438;DHT22;15667;52.376;9.708;2023-02-03T06:06:31;8.20;99.90
28438;DHT22;15667;52.376;9.708;2023-02-03T06:09:04;8.20;99.90
28438;DHT22;15667;52.376;9.708;2023-02-03T06:11:31;8.20;99.90
28438;DHT22;15667;52.376;9.708;2023-02-03T06:13:57;8.60;99.90
28438;DHT22;15667;52.376;9.708;2023-02-03T06:16:24;9.20;99.90
28438;DHT22;15667;52.376;9.708;2023-02-03T06:18:51;8.60;99.90
28438;DHT22;15667;52.376;9.708;2023-02-03T06:21:17;8.30;99.90
28438;DHT22;15667;52.376;9.708;2023-02-03T06:23:43;8.20;99.90
28438;DHT22;15667;52.376;9.708;2023-02-03T06:26:08;8.20;99.90
28438;DHT22;15667;52.376;9.708;2023-02-03T06:28:34;8.10;99.90
28438;DHT22;15667;52.376;9.708;2023-02-03T06:31:00;8.10;99.90
28438;DHT22;15667;52.376;9.708;2023-02-03T06:33:25;8.40;99.90
28438;DHT22;15667;52.376;9.708;2023-02-03T06:35:53;8.30;99.90
28438;DHT22;15667;52.376;9.708;2023-02-03T06:38:18;8.50;99.90
28438;DHT22;15667;52.376;9.708;2023-02-03T06:40:47;7.80;99.90
28438;DHT22;15667;52.376;9.708;2023-02-03T06:43:13;8.10;99.90
28438;DHT22;15667;52.376;9.708;2023-02-03T06:45:39;7.80;99.90
28438;DHT22;15667;52.376;9.708;2023-02-03T06:48:04;7.80;99.90
28438;DHT22;15667;52.376;9.708;2023-02-03T06:50:30;7.80;99.90
28438;DHT22;15667;52.376;9.708;2023-02-03T06:52:56;9.10;99.90
28438;DHT22;15667;52.376;9.708;2023-02-03T06:55:21;7.80;99.90
28438;DHT22;15667;52.376;9.708;2023-02-03T06:57:47;8.60;99.90
28438;DHT22;15667;52.376;9.708;2023-02-03T07:00:15;8.10;99.90
28438;DHT22;15667;52.376;9.708;2023-02-03T07:02:41;7.70;99.90
28438;DHT22;15667;52.376;9.708;2023-02-03T07:05:07;7.70;99.90
28438;DHT22;15667;52.376;9.708;2023-02-03T07:07:33;7.70;99.90
28438;DHT22;15667;52.376;9.708;2023-02-03T07:10:00;7.70;99.90
28438;DHT22;15667;52.376;9.708;2023-02-03T07:12:25;7.70;99.90
28438;DHT22;15667;52.376;9.708;2023-02-03T07:14:52;7.70;99.90
28438;DHT22;15667;52.376;9.708;2023-02-03T07:17:17;7.70;99.90
28438;DHT22;15667;52.376;9.708;2023-02-03T07:19:43;7.60;99.90
28438;DHT22;15667;52.376;9.708;2023-02-03T07:22:12;7.60;99.90
28438;DHT22;15667;52.376;9.708;2023-02-03T07:24:37;8.40;99.90
28438;DHT22;15667;52.376;9.708;2023-02-03T07:27:03;7.70;99.90
28438;DHT22;15667;52.376;9.708;2023-02-03T07:29:29;7.70;99.90
28438;DHT22;15667;52.376;9.708;2023-02-03T07:31:54;8.50;99.90
28438;DHT22;15667;52.376;9.708;2023-02-03T07:34:20;7.70;99.90
28438;DHT22;15667;52.376;9.708;2023-02-03T07:36:46;7.60;99.90
28438;DHT22;15667;52.376;9.708;2023-02-03T07:39:11;7.70;99.90
28438;DHT22;15667;52.376;9.708;2023-02-03T07:41:37;7.60;99.90
28438;DHT22;15667;52.376;9.708;2023-02-03T07:44:04;7.70;99.90
28438;DHT22;15667;52.376;9.708;2023-02-03T07:46:30;7.60;99.90
28438;DHT22;15667;52.376;9.708;2023-02-03T07:48:55;7.80;99.90
28438;DHT22;15667;52.376;9.708;2023-02-03T07:51:21;7.70;99.90
28438;DHT22;15667;52.376;9.708;2023-02-03T07:53:46;7.90;99.90
28438;DHT22;15667;52.376;9.708;2023-02-03T07:56:12;7.70;99.90
28438;DHT22;15667;52.376;9.708;2023-02-03T07:58:38;7.70;99.90
28438;DHT22;15667;52.376;9.708;2023-02-03T08:01:13;7.70;99.90
28438;DHT22;15667;52.376;9.708;2023-02-03T08:03:40;8.20;99.90
28438;DHT22;15667;52.376;9.708;2023-02-03T08:06:06;7.80;99.90
28438;DHT22;15667;52.376;9.708;2023-02-03T08:08:32;7.80;99.90
28438;DHT22;15667;52.376;9.708;2023-02-03T08:10:57;7.80;99.90
28438;DHT22;15667;52.376;9.708;2023-02-03T08:13:23;8.90;99.90
28438;DHT22;15667;52.376;9.708;2023-02-03T08:15:48;8.80;99.90
28438;DHT22;15667;52.376;9.708;2023-02-03T08:18:14;8.50;99.90
28438;DHT22;15667;52.376;9.708;2023-02-03T08:20:40;8.90;99.90
28438;DHT22;15667;52.376;9.708;2023-02-03T08:23:06;8.00;99.90
28438;DHT22;15667;52.376;9.708;2023-02-03T08:25:32;7.90;99.90
28438;DHT22;15667;52.376;9.708;2023-02-03T08:27:57;8.10;99.90
28438;DHT22;15667;52.376;9.708;2023-02-03T08:30:23;8.70;99.90
28438;DHT22;15667;52.376;9.708;2023-02-03T08:32:49;8.10;99.90
28438;DHT22;15667;52.376;9.708;2023-02-03T08:35:15;8.10;99.90
28438;DHT22;15667;52.376;9.708;2023-02-03T08:37:40;8.10;99.90
28438;DHT22;15667;52.376;9.708;2023-02-03T08:40:06;8.20;99.90
28438;DHT22;15667;52.376;9.708;2023-02-03T08:42:32;8.20;99.90
28438;DHT22;15667;52.376;9.708;2023-02-03T08:44:58;8.20;99.90
28438;DHT22;15667;52.376;9.708;2023-02-03T08:47:24;8.20;99.90
28438;DHT22;15667;52.376;9.708;2023-02-03T08:49:50;8.20;99.90
28438;DHT22;15667;52.376;9.708;2023-02-03T08:52:16;8.30;99.90
28438;DHT22;15667;52.376;9.708;2023-02-03T08:54:42;8.70;99.90
28438;DHT22;15667;52.376;9.708;2023-02-03T08:57:08;8.30;99.90
28438;DHT22;15667;52.376;9.708;2023-02-03T08:59:40;8.30;99.90
28438;DHT22;15667;52.376;9.708;2023-02-03T09:02:10;8.20;99.90
28438;DHT22;15667;52.376;9.708;2023-02-03T09:04:37;8.20;99.90
28438;DHT22;15667;52.376;9.708;2023-02-03T09:07:03;8.20;99.90
28438;DHT22;15667;52.376;9.708;2023-02-03T09:09:29;8.10;99.90
28438;DHT22;15667;52.376;9.708;2023-02-03T09:11:54;8.20;99.90
28438;DHT22;15667;52.376;9.708;2023-02-03T09:14:27;8.20;99.90
28438;DHT22;15667;52.376;9.708;2023-02-03T09:16:55;8.30;99.90
28438;DHT22;15667;52.376;9.708;2023-02-03T09:19:21;8.70;99.90
28438;DHT22;15667;52.376;9.708;2023-02-03T09:21:47;7.40;99.90
28438;DHT22;15667;52.376;9.708;2023-02-03T09:24:14;8.40;99.90
28438;DHT22;15667;52.376;9.708;2023-02-03T09:26:55;8.40;99.90
28438;DHT22;15667;52.376;9.708;2023-02-03T09:29:21;9.80;99.90
28438;DHT22;15667;52.376;9.708;2023-02-03T09:31:48;9.20;99.90
28438;DHT22;15667;52.376;9.708;2023-02-03T09:34:17;8.60;99.90
28438;DHT22;15667;52.376;9.708;2023-02-03T09:36:43;8.90;99.90
28438;DHT22;15667;52.376;9.708;2023-02-03T09:39:09;8.60;99.90
28438;DHT22;15667;52.376;9.708;2023-02-03T09:41:57;9.50;99.90
28438;DHT22;15667;52.376;9.708;2023-02-03T09:44:35;8.60;99.90
28438;DHT22;15667;52.376;9.708;2023-02-03T09:47:04;8.50;99.90
28438;DHT22;15667;52.376;9.708;2023-02-03T09:49:41;8.40;99.90
28438;DHT22;15667;52.376;9.708;2023-02-03T09:52:20;8.40;99.90
28438;DHT22;15667;52.376;9.708;2023-02-03T09:57:24;8.40;99.90
28438;DHT22;15667;52.376;9.708;2023-02-03T09:59:51;8.40;99.90
28438;DHT22;15667;52.376;9.708;2023-02-03T10:11:07;8.40;99.90
28438;DHT22;15667;52.376;9.708;2023-02-03T10:16:35;8.40;99.90
28438;DHT22;15667;52.376;9.708;2023-02-03T10:19:10;8.40;99.90
28438;DHT22;15667;52.376;9.708;2023-02-03T10:21:47;8.40;99.90
28438;DHT22;15667;52.376;9.708;2023-02-03T10:24:25;8.40;99.90
28438;DHT22;15667;52.376;9.708;2023-02-03T10:26:51;8.50;99.90
28438;DHT22;15667;52.376;9.708;2023-02-03T10:29:40;8.30;99.90
28438;DHT22;15667;52.376;9.708;2023-02-03T10:32:11;8.30;99.90
28438;DHT22;15667;52.376;9.708;2023-02-03T10:34:37;8.20;99.90
28438;DHT22;15667;52.376;9.708;2023-02-03T10:39:58;8.20;99.90
28438;DHT22;15667;52.376;9.708;2023-02-03T10:42:25;8.20;99.90
28438;DHT22;15667;52.376;9.708;2023-02-03T10:45:12;8.10;99.90
28438;DHT22;15667;52.376;9.708;2023-02-03T10:47:43;8.10;99.90
28438;DHT22;15667;52.376;9.708;2023-02-03T10:50:22;8.10;99.90
28438;DHT22;15667;52.376;9.708;2023-02-03T10:52:48;8.10;99.90
28438;DHT22;15667;52.376;9.708;2023-02-03T10:57:46;8.00;99.90
28438;DHT22;15667;52.376;9.708;2023-02-03T11:00:32;8.00;99.90
28438;DHT22;15667;52.376;9.708;2023-02-03T11:03:06;8.10;99.90
28438;DHT22;15667;52.376;9.708;2023-02-03T11:05:33;8.70;99.90
28438;DHT22;15667;52.376;9.708;2023-02-03T11:07:58;8.10;99.90
28438;DHT22;15667;52.376;9.708;2023-02-03T11:10:33;8.10;99.90
28438;DHT22;15667;52.376;9.708;2023-02-03T11:13:22;8.10;99.90
28438;DHT22;15667;52.376;9.708;2023-02-03T11:20:56;8.20;99.90
28438;DHT22;15667;52.376;9.708;2023-02-03T11:23:22;8.20;99.90
28438;DHT22;15667;52.376;9.708;2023-02-03T11:25:48;8.60;99.90
28438;DHT22;15667;52.376;9.708;2023-02-03T11:28:14;9.10;99.90
28438;DHT22;15667;52.376;9.708;2023-02-03T11:30:40;8.40;99.90
28438;DHT22;15667;52.376;9.708;2023-02-03T11:33:18;9.00;99.90
28438;DHT22;15667;52.376;9.708;2023-02-03T11:35:56;8.30;99.90
28438;DHT22;15667;52.376;9.708;2023-02-03T11:38:32;8.80;99.90
28438;DHT22;15667;52.376;9.708;2023-02-03T11:41:01;8.40;99.90
28438;DHT22;15667;52.376;9.708;2023-02-03T11:43:28;8.40;99.90
28438;DHT22;15667;52.376;9.708;2023-02-03T11:46:02;8.70;99.90
28438;DHT22;15667;52.376;9.708;2023-02-03T11:48:34;8.40;99.90
28438;DHT22;15667;52.376;9.708;2023-02-03T11:57:15;8.50;99.90
28438;DHT22;15667;52.376;9.708;2023-02-03T12:02:38;8.70;99.90
28438;DHT22;15667;52.376;9.708;2023-02-03T12:05:30;8.80;99.90
28438;DHT22;15667;52.376;9.708;2023-02-03T12:08:19;8.70;99.90
28438;DHT22;15667;52.376;9.708;2023-02-03T12:10:59;8.70;99.90
28438;DHT22;15667;52.376;9.708;2023-02-03T12:22:02;9.00;99.90
28438;DHT22;15667;52.376;9.708;2023-02-03T12:30:21;9.20;99.90
28438;DHT22;15667;52.376;9.708;2023-02-03T12:33:03;9.30;99.90
28438;DHT22;15667;52.376;9.708;2023-02-03T12:40:59;9.40;99.90
28438;DHT22;15667;52.376;9.708;2023-02-03T12:43:41;9.50;99.90
28438;DHT22;15667;52.376;9.708;2023-02-03T12:49:27;9.60;99.90
28438;DHT22;15667;52.376;9.708;2023-02-03T12:52:16;9.60;99.90
28438;DHT22;15667;52.376;9.708;2023-02-03T12:54:46;9.70;99.90
28438;DHT22;15667;52.376;9.708;2023-02-03T12:57:27;9.70;99.90
28438;DHT22;15667;52.376;9.708;2023-02-03T13:02:41;9.70;99.90
28438;DHT22;15667;52.376;9.708;2023-02-03T13:05:20;9.70;99.90
28438;DHT22;15667;52.376;9.708;2023-02-03T13:08:01;9.70;99.90
28438;DHT22;15667;52.376;9.708;2023-02-03T13:10:40;9.80;99.90
28438;DHT22;15667;52.376;9.708;2023-02-03T13:13:12;9.80;99.90
28438;DHT22;15667;52.376;9.708;2023-02-03T13:15:47;9.80;99.90
28438;DHT22;15667;52.376;9.708;2023-02-03T13:20:41;9.80;99.90
28438;DHT22;15667;52.376;9.708;2023-02-03T13:23:12;10.50;99.90
28438;DHT22;15667;52.376;9.708;2023-02-03T13:28:48;9.80;99.90
28438;DHT22;15667;52.376;9.708;2023-02-03T13:37:06;9.90;99.90
28438;DHT22;15667;52.376;9.708;2023-02-03T13:39:48;9.90;99.90
28438;DHT22;15667;52.376;9.708;2023-02-03T13:42:29;9.90;99.90
28438;DHT22;15667;52.376;9.708;2023-02-03T13:47:32;9.90;99.90
28438;DHT22;15667;52.376;9.708;2023-02-03T13:50:05;10.40;99.90
28438;DHT22;15667;52.376;9.708;2023-02-03T13:55:34;10.60;99.90
28438;DHT22;15667;52.376;9.708;2023-02-03T13:58:01;9.90;99.90
28438;DHT22;15667;52.376;9.708;2023-02-03T14:03:16;9.80;99.90
28438;DHT22;15667;52.376;9.708;2023-02-03T14:05:46;10.00;99.90
28438;DHT22;15667;52.376;9.708;2023-02-03T14:16:51;9.50;99.90
28438;DHT22;15667;52.376;9.708;2023-02-03T14:22:06;10.10;99.90
28438;DHT22;15667;52.376;9.708;2023-02-03T14:24:41;9.50;99.90
28438;DHT22;15667;52.376;9.708;2023-02-03T14:27:20;9.50;99.90
28438;DHT22;15667;52.376;9.708;2023-02-03T14:30:05;9.50;99.90
28438;DHT22;15667;52.376;9.708;2023-02-03T14:32:53;10.20;99.90
28438;DHT22;15667;52.376;9.708;2023-02-03T14:35:31;9.40;99.90
28438;DHT22;15667;52.376;9.708;2023-02-03T14:38:06;9.30;99.90
28438;DHT22;15667;52.376;9.708;2023-02-03T14:41:08;9.40;99.90
28438;DHT22;15667;52.376;9.708;2023-02-03T14:52:48;9.20;99.90
28438;DHT22;15667;52.376;9.708;2023-02-03T14:55:31;9.20;99.90
28438;DHT22;15667;52.376;9.708;2023-02-03T14:58:02;9.20;99.90
28438;DHT22;15667;52.376;9.708;2023-02-03T15:00:34;9.20;99.90
28438;DHT22;15667;52.376;9.708;2023-02-03T15:05:46;9.30;99.90
28438;DHT22;15667;52.376;9.708;2023-02-03T15:08:47;9.10;99.90
28438;DHT22;15667;52.376;9.708;2023-02-03T15:11:28;9.20;99.90
28438;DHT22;15667;52.376;9.708;2023-02-03T15:13:57;9.00;99.90
28438;DHT22;15667;52.376;9.708;2023-02-03T15:16:42;8.90;99.90
28438;DHT22;15667;52.376;9.708;2023-02-03T15:19:20;8.70;99.90
28438;DHT22;15667;52.376;9.708;2023-02-03T15:21:47;9.00;99.90
28438;DHT22;15667;52.376;9.708;2023-02-03T15:24:16;8.90;99.90
28438;DHT22;15667;52.376;9.708;2023-02-03T15:26:45;9.40;99.90
28438;DHT22;15667;52.376;9.708;2023-02-03T15:29:20;8.90;99.90
28438;DHT22;15667;52.376;9.708;2023-02-03T15:31:48;7.80;99.90
28438;DHT22;15667;52.376;9.708;2023-02-03T15:34:29;9.70;99.90
28438;DHT22;15667;52.376;9.708;2023-02-03T15:36:58;8.80;99.90
28438;DHT22;15667;52.376;9.708;2023-02-03T15:42:34;9.30;99.90
28438;DHT22;15667;52.376;9.708;2023-02-03T15:47:39;8.60;99.90
28438;DHT22;15667;52.376;9.708;2023-02-03T15:50:30;9.40;99.90
28438;DHT22;15667;52.376;9.708;2023-02-03T15:53:02;8.40;99.90
28438;DHT22;15667;52.376;9.708;2023-02-03T15:55:37;8.50;99.90
28438;DHT22;15667;52.376;9.708;2023-02-03T15:58:17;8.50;99.90
28438;DHT22;15667;52.376;9.708;2023-02-03T16:00:48;8.40;99.90
28438;DHT22;15667;52.376;9.708;2023-02-03T16:03:20;8.50;99.90
28438;DHT22;15667;52.376;9.708;2023-02-03T16:05:47;8.80;99.90
28438;DHT22;15667;52.376;9.708;2023-02-03T16:10:59;9.20;99.90
28438;DHT22;15667;52.376;9.708;2023-02-03T16:13:26;8.30;99.90
28438;DHT22;15667;52.376;9.708;2023-02-03T16:16:21;7.60;99.90
28438;DHT22;15667;52.376;9.708;2023-02-03T16:18:56;8.20;99.90
28438;DHT22;15667;52.376;9.708;2023-02-03T16:21:34;8.30;99.90
28438;DHT22;15667;52.376;9.708;2023-02-03T16:24:02;8.30;99.90
28438;DHT22;15667;52.376;9.708;2023-02-03T16:26:32;8.20;99.90
28438;DHT22;15667;52.376;9.708;2023-02-03T16:29:09;8.20;99.90
28438;DHT22;15667;52.376;9.708;2023-02-03T16:31:54;8.40;99.90
28438;DHT22;15667;52.376;9.708;2023-02-03T16:34:38;8.20;99.90
28438;DHT22;15667;52.376;9.708;2023-02-03T16:37:25;8.50;99.90
28438;DHT22;15667;52.376;9.708;2023-02-03T16:40:11;8.20;99.90
28438;DHT22;15667;52.376;9.708;2023-02-03T16:42:57;8.20;99.90
28438;DHT22;15667;52.376;9.708;2023-02-03T16:45:42;8.60;99.90
28438;DHT22;15667;52.376;9.708;2023-02-03T16:48:26;8.20;99.90
28438;DHT22;15667;52.376;9.708;2023-02-03T16:51:15;8.00;99.90
28438;DHT22;15667;52.376;9.708;2023-02-03T16:53:43;8.10;99.90
28438;DHT22;15667;52.376;9.708;2023-02-03T16:56:11;8.10;99.90
28438;DHT22;15667;52.376;9.708;2023-02-03T16:58:38;8.10;99.90
28438;DHT22;15667;52.376;9.708;2023-02-03T17:01:04;8.10;99.90
28438;DHT22;15667;52.376;9.708;2023-02-03T17:03:33;8.00;99.90
28438;DHT22;15667;52.376;9.708;2023-02-03T17:06:10;8.80;99.90
28438;DHT22;15667;52.376;9.708;2023-02-03T17:08:37;8.20;99.90
28438;DHT22;15667;52.376;9.708;2023-02-03T17:11:10;8.50;99.90
28438;DHT22;15667;52.376;9.708;2023-02-03T17:13:37;8.10;99.90
28438;DHT22;15667;52.376;9.708;2023-02-03T17:16:08;8.00;99.90
28438;DHT22;15667;52.376;9.708;2023-02-03T17:18:34;8.00;99.90
28438;DHT22;15667;52.376;9.708;2023-02-03T17:21:07;8.30;99.90
28438;DHT22;15667;52.376;9.708;2023-02-03T17:23:34;8.00;99.90
28438;DHT22;15667;52.376;9.708;2023-02-03T17:26:00;8.10;99.90
28438;DHT22;15667;52.376;9.708;2023-02-03T17:28:25;8.30;99.90
28438;DHT22;15667;52.376;9.708;2023-02-03T17:30:56;9.10;99.90
28438;DHT22;15667;52.376;9.708;2023-02-03T17:33:21;8.00;99.90
28438;DHT22;15667;52.376;9.708;2023-02-03T17:35:59;9.40;99.90
28438;DHT22;15667;52.376;9.708;2023-02-03T17:38:25;7.90;99.90
28438;DHT22;15667;52.376;9.708;2023-02-03T17:40:50;8.10;99.90
28438;DHT22;15667;52.376;9.708;2023-02-03T17:43:16;8.80;99.90
28438;DHT22;15667;52.376;9.708;2023-02-03T17:45:43;8.00;99.90
28438;DHT22;15667;52.376;9.708;2023-02-03T17:48:09;7.90;99.90
28438;DHT22;15667;52.376;9.708;2023-02-03T17:50:36;7.40;99.90
28438;DHT22;15667;52.376;9.708;2023-02-03T17:53:02;8.70;99.90
28438;DHT22;15667;52.376;9.708;2023-02-03T17:55:28;7.90;99.90
28438;DHT22;15667;52.376;9.708;2023-02-03T17:57:54;7.90;99.90
28438;DHT22;15667;52.376;9.708;2023-02-03T18:00:20;7.80;99.90
28438;DHT22;15667;52.376;9.708;2023-02-03T18:02:50;7.80;99.90
28438;DHT22;15667;52.376;9.708;2023-02-03T18:05:16;8.10;99.90
28438;DHT22;15667;52.376;9.708;2023-02-03T18:07:43;7.80;99.90
28438;DHT22;15667;52.376;9.708;2023-02-03T18:10:08;7.80;99.90
28438;DHT22;15667;52.376;9.708;2023-02-03T18:12:34;7.10;99.90